Data for 02/14/2017

Time Sea-Level Adjusted Pressure Absolute Pressure Temperature Relative Humidity Dew Point   
(mb) (inHg) (mb) (inHg) (C) (F) (%) (C) (F)
00:05 1026 30.3 855 25.25 -0.7 30.8 47 -10.8 12.6
00:10 1026 30.3 855 25.25 -1 30.2 47 -11 12.3
00:15 1026 30.3 855 25.25 -0.8 30.5 46 -11.1 12.1
00:20 1026 30.3 855 25.25 -0.8 30.6 46 -11.1 12.1
00:25 1026 30.3 855 25.25 -0.7 30.7 46 -10.9 12.5
00:30 1026 30.3 855 25.25 -1.3 29.7 50 -10.5 13.1
00:35 1026 30.3 855 25.25 -2 28.4 52 -10.5 13.1
00:40 1026 30.3 855 25.25 -2.4 27.7 54 -10.6 13
00:45 1026 30.3 855 25.25 -2.3 27.8 54 -10.5 13
00:50 1026 30.3 855 25.25 -2.2 28 52 -10.9 12.4
00:55 1026 30.3 855 25.25 -1.9 28.7 51 -10.8 12.6
01:00 1026 30.3 855 25.25 -1.9 28.6 51 -10.7 12.7
01:05 1026 30.3 855 25.25 -1.9 28.6 51 -10.9 12.5
01:10 1026 30.3 855 25.25 -1.9 28.6 49 -11.3 11.6
01:15 1026 30.3 855 25.25 -2.1 28.2 49 -11.4 11.5
01:20 1026 30.3 855 25.25 -2.2 28 51 -11 12.2
01:25 1026 30.3 855 25.25 -2.3 27.9 51 -11.1 12
01:30 1026 30.3 855 25.25 -2.3 27.8 51 -11.3 11.7
01:35 1026 30.3 855 25.25 -2.4 27.6 51 -11.3 11.7
01:40 1026 30.3 855 25.25 -2.4 27.7 51 -11.3 11.7
01:45 1026 30.3 855 25.25 -2.2 28 50 -11.2 11.8
01:50 1026 30.3 855 25.25 -2.2 28.1 51 -11 12.2
01:55 1026 30.3 855 25.25 -2.3 27.9 52 -10.9 12.4
02:00 1026 30.3 855 25.25 -2.4 27.6 51 -11.2 11.8
02:05 1026 30.3 855 25.25 -2.4 27.7 50 -11.4 11.4
02:10 1026 30.3 855 25.25 -2.1 28.3 48 -11.7 10.9
02:15 1026 30.3 855 25.25 -1.3 29.6 46 -11.6 11.1
02:20 1026 30.3 855 25.25 -1 30.1 45 -11.6 11.2
02:25 1026 30.3 855 25.25 -0.8 30.6 45 -11.4 11.6
02:30 1026 30.3 855 25.25 -1.2 29.8 51 -10.2 13.6
02:35 1026 30.3 855 25.25 -2 28.5 52 -10.5 13.2
02:40 1026 30.3 855 25.25 -2.4 27.8 51 -11.1 12
02:45 1026 30.3 855 25.25 -2 28.3 51 -10.8 12.6
02:50 1026 30.3 855 25.25 -1.8 28.9 50 -10.7 12.7
02:55 1026 30.3 855 25.25 -1.7 28.9 51 -10.5 13.2
03:00 1026 30.3 855 25.25 -2.2 28.1 54 -10.4 13.3
03:05 1026 30.3 855 25.25 -2.2 28 53 -10.5 13.1
03:10 1026 30.3 855 25.25 -2 28.4 52 -10.5 13.1
03:15 1026 30.3 855 25.25 -2.1 28.3 54 -10.2 13.7
03:20 1026 30.3 856 25.28 -2.2 28 54 -10.3 13.4
03:25 1026 30.3 855 25.25 -2.2 28 53 -10.5 13.1
03:30 1026 30.3 855 25.25 -2.3 27.8 53 -10.7 12.8
03:35 1026 30.3 856 25.28 -2.2 28 52 -10.8 12.6
03:40 1026 30.3 856 25.28 -2.5 27.6 54 -10.6 12.9
03:45 1026 30.3 856 25.28 -2.5 27.5 52 -11 12.2
03:50 1026 30.3 856 25.28 -2.4 27.7 51 -11.1 12.1
03:55 1026 30.3 855 25.25 -2.6 27.3 55 -10.5 13.2
04:00 1026 30.3 855 25.25 -2.4 27.7 54 -10.4 13.2
04:05 1026 30.3 855 25.25 -2.2 28 54 -10.3 13.4
04:10 1026 30.3 855 25.25 -2.7 27.1 56 -10.2 13.6
04:15 1026 30.3 856 25.28 -2.9 26.7 55 -10.7 12.7
04:20 1026 30.3 855 25.25 -2.9 26.7 55 -10.8 12.5
04:25 1026 30.3 855 25.25 -2.6 27.3 54 -10.8 12.6
04:30 1026 30.3 856 25.28 -2.1 28.1 50 -11.2 11.8
04:35 1026 30.3 856 25.28 -2.1 28.3 51 -11 12.3
04:40 1026 30.3 856 25.28 -2.4 27.7 51 -11.2 11.9
04:45 1026 30.3 856 25.28 -2.3 27.9 51 -11 12.2
04:50 1027 30.33 856 25.28 -2.5 27.5 52 -11 12.1
04:55 1027 30.33 856 25.28 -2.5 27.5 52 -11.2 11.9
05:00 1027 30.33 856 25.28 -2.4 27.8 52 -10.9 12.3
05:05 1027 30.33 856 25.28 -2.4 27.7 52 -11 12.2
05:10 1027 30.33 856 25.28 -2.3 27.8 52 -11 12.3
05:15 1026 30.3 856 25.28 -2.5 27.6 52 -10.9 12.3
05:20 1026 30.3 856 25.28 -2.5 27.5 52 -11 12.2
05:25 1026 30.3 856 25.28 -2.4 27.7 52 -11 12.1
05:30 1026 30.3 856 25.28 -2.2 28 50 -11.2 11.8
05:35 1026 30.3 856 25.28 -1.8 28.8 49 -11.1 11.9
05:40 1026 30.3 856 25.28 -1.6 29.1 49 -11 12.2
05:45 1026 30.3 856 25.28 -2.1 28.2 54 -10.3 13.5
05:50 1026 30.3 856 25.28 -2.3 27.9 53 -10.7 12.7
05:55 1026 30.3 856 25.28 -2.6 27.4 53 -10.8 12.6
06:00 1026 30.3 856 25.28 -2.7 27.2 53 -11.1 12.1
06:05 1026 30.3 856 25.28 -2.7 27.2 54 -10.8 12.5
06:10 1027 30.33 856 25.28 -3 26.5 55 -10.8 12.6
06:15 1027 30.33 856 25.28 -3.2 26.3 55 -10.9 12.3
06:20 1027 30.33 856 25.28 -3.3 26 55 -11 12.2
06:25 1026 30.3 856 25.28 -3.2 26.2 55 -11.1 12.1
06:30 1026 30.3 856 25.28 -3 26.5 55 -10.9 12.4
06:35 1026 30.3 856 25.28 -3.2 26.3 55 -10.9 12.3
06:40 1026 30.3 856 25.28 -3.2 26.3 55 -11 12.1
06:45 1026 30.3 856 25.28 -3.1 26.4 54 -11.1 12
06:50 1026 30.3 856 25.28 -2.9 26.9 54 -11 12.2
06:55 1026 30.3 856 25.28 -3 26.6 54 -10.9 12.3
07:00 1026 30.3 856 25.28 -2.5 27.5 53 -10.9 12.3
07:05 1026 30.3 856 25.28 -2.1 28.2 51 -10.8 12.5
07:10 1026 30.3 856 25.28 -1.8 28.7 51 -10.6 12.9
07:15 1026 30.3 856 25.28 -1.7 28.9 52 -10.4 13.3
07:20 1026 30.3 856 25.28 -1.7 29 52 -10.4 13.3
07:25 1026 30.3 856 25.28 -2.5 27.4 55 -10.4 13.3
07:30 1026 30.3 856 25.28 -3.5 25.7 57 -10.8 12.5
07:35 1026 30.3 856 25.28 -3.7 25.4 57 -11 12.1
07:40 1026 30.3 856 25.28 -3.4 26 56 -11 12.2
07:45 1026 30.3 856 25.28 -3.1 26.3 56 -10.8 12.5
07:50 1026 30.3 856 25.28 -3.5 25.7 57 -10.8 12.6
07:55 1026 30.3 856 25.28 -3.5 25.7 56 -11 12.2
08:00 1026 30.3 856 25.28 -3.4 26 56 -11 12.3
08:05 1026 30.3 856 25.28 -2.9 26.7 54 -10.9 12.4
08:10 1026 30.3 856 25.28 -2.6 27.3 54 -10.7 12.8
08:15 1026 30.3 856 25.28 -2.5 27.5 53 -10.7 12.7
08:20 1026 30.3 856 25.28 -2.4 27.7 53 -10.8 12.6
08:25 1026 30.3 856 25.28 -2.2 28.1 52 -10.8 12.5
08:30 1027 30.33 856 25.28 -2.1 28.2 52 -10.7 12.8
08:35 1027 30.33 856 25.28 -1.8 28.8 51 -10.7 12.8
08:40 1027 30.33 856 25.28 -1.5 29.4 50 -10.7 12.8
08:45 1027 30.33 856 25.28 -1.5 29.2 50 -10.7 12.8
08:50 1027 30.33 856 25.28 -1.5 29.2 51 -10.5 13.1
08:55 1027 30.33 856 25.28 -1.3 29.7 50 -10.5 13.2
09:00 1027 30.33 856 25.28 -1 30.3 48 -10.6 13
09:05 1027 30.33 856 25.28 -0.6 30.9 48 -10.3 13.5
09:10 1027 30.33 856 25.28 -0.4 31.2 47 -10.4 13.3
09:15 1027 30.33 856 25.28 0.2 32.3 44 -10.6 13
09:20 1027 30.33 856 25.28 0.4 32.7 44 -10.4 13.2
09:25 1027 30.33 856 25.28 0.6 33.1 42 -10.7 12.7
09:30 1027 30.33 856 25.28 1.3 34.4 42 -10.3 13.4
09:35 1027 30.33 856 25.28 1.6 34.9 40 -10.7 12.8
09:40 1027 30.33 856 25.28 2.2 35.9 38 -10.6 12.9
09:45 1027 30.33 856 25.28 1.8 35.2 40 -10.5 13.2
09:50 1027 30.33 856 25.28 2 35.6 39 -10.5 13.1
09:55 1027 30.33 856 25.28 2.7 36.8 39 -10 14
10:00 1027 30.33 856 25.28 2.9 37.3 38 -10.1 13.9
10:05 1027 30.33 856 25.28 3 37.4 38 -9.9 14.2
10:10 1027 30.33 856 25.28 2.3 36.1 43 -9.2 15.4
10:15 1027 30.33 856 25.28 2.2 36 43 -9.2 15.5
10:20 1027 30.33 856 25.28 2.1 35.8 42 -9.5 14.9
10:25 1027 30.33 856 25.28 2.2 36 41 -9.6 14.8
10:30 1027 30.33 856 25.28 2.4 36.3 42 -9.4 15.1
10:35 1027 30.33 856 25.28 3 37.4 40 -9.5 15
10:40 1027 30.33 856 25.28 3.2 37.7 39 -9.6 14.7
10:45 1027 30.33 856 25.28 3.4 38.1 38 -9.5 14.9
10:50 1027 30.33 856 25.28 3.5 38.4 37 -9.8 14.4
10:55 1027 30.33 856 25.28 3.1 37.5 40 -9.4 15.1
11:00 1027 30.33 856 25.28 3.1 37.6 38 -9.9 14.2
11:05 1027 30.33 856 25.28 3.9 39 38 -9.3 15.3
11:10 1027 30.33 856 25.28 3.9 39.1 38 -9.1 15.6
11:15 1027 30.33 856 25.28 4.2 39.6 37 -9.2 15.5
11:20 1027 30.33 856 25.28 4.2 39.6 38 -9 15.8
11:25 1027 30.33 856 25.28 4.4 39.9 38 -8.9 16
11:30 1027 30.33 856 25.28 4.4 39.9 35 -9.7 14.5
11:35 1027 30.33 856 25.28 4 39.3 36 -9.6 14.7
11:40 1027 30.33 856 25.28 4.1 39.4 36 -9.7 14.6
11:45 1027 30.33 856 25.28 4.6 40.2 35 -9.5 15
11:50 1027 30.33 856 25.28 3.7 38.6 39 -9.2 15.4
11:55 1027 30.33 856 25.28 4 39.3 37 -9.2 15.4
12:00 1026 30.3 856 25.28 4.9 40.8 35 -9.4 15.1
12:05 1026 30.3 856 25.28 5.2 41.4 35 -9 15.8
12:10 1026 30.3 855 25.25 5.4 41.7 36 -8.6 16.5
12:15 1026 30.3 855 25.25 5.1 41.2 36 -8.7 16.3
12:20 1026 30.3 855 25.25 5.2 41.4 37 -8.3 17
12:25 1026 30.3 855 25.25 5 41 39 -8 17.6
12:30 1026 30.3 855 25.25 5.1 41.2 35 -8.9 15.9
12:35 1026 30.3 855 25.25 5.6 42.2 36 -8.4 16.9
12:40 1026 30.3 855 25.25 5.9 42.5 33 -9.2 15.4
12:45 1026 30.3 855 25.25 6.1 43.1 34 -8.7 16.3
12:50 1026 30.3 855 25.25 6.6 43.9 34 -8.3 17
12:55 1026 30.3 855 25.25 6.8 44.2 33 -8.3 17
13:00 1026 30.3 855 25.25 7 44.7 34 -7.8 17.9
13:05 1025 30.27 855 25.25 7.5 45.4 32 -8 17.6
13:10 1025 30.27 855 25.25 7.5 45.5 33 -7.9 17.8
13:15 1025 30.27 855 25.25 7.7 45.8 31 -8.2 17.2
13:20 1025 30.27 855 25.25 7.6 45.7 33 -7.7 18.1
13:25 1025 30.27 855 25.25 7.5 45.5 33 -7.7 18.1
13:30 1025 30.27 855 25.25 7.5 45.5 36 -6.7 19.9
13:35 1025 30.27 854 25.22 7.5 45.4 34 -7.2 19
13:40 1025 30.27 854 25.22 6.9 44.4 36 -7.2 19
13:45 1025 30.27 854 25.22 7 44.6 35 -7.4 18.6
13:50 1025 30.27 854 25.22 6.8 44.3 37 -6.8 19.7
13:55 1025 30.27 854 25.22 7.1 44.9 35 -7.3 18.9
14:00 1025 30.27 854 25.22 7.1 44.8 34 -7.6 18.3
14:05 1025 30.27 854 25.22 6.7 44.1 35 -7.5 18.4
14:10 1025 30.27 854 25.22 6.5 43.7 39 -6.6 20.1
14:15 1025 30.27 854 25.22 6.9 44.4 35 -7.6 18.3
14:20 1025 30.27 854 25.22 6.9 44.4 34 -7.8 17.9
14:25 1025 30.27 854 25.22 6.8 44.2 35 -7.8 18
14:30 1025 30.27 854 25.22 6.6 44 34 -8.1 17.3
14:35 1025 30.27 854 25.22 6.7 44.1 35 -7.5 18.5
14:40 1025 30.27 854 25.22 7 44.6 35 -7.6 18.4
14:45 1025 30.27 854 25.22 6.8 44.2 34 -7.9 17.9
14:50 1025 30.27 854 25.22 6.8 44.3 33 -8.2 17.2
14:55 1025 30.27 854 25.22 7.3 45.1 33 -7.9 17.7
15:00 1025 30.27 854 25.22 7.3 45.2 33 -7.8 17.9
15:05 1025 30.27 854 25.22 7.6 45.7 32 -8 17.5
15:10 1024 30.24 854 25.22 7.6 45.6 33 -7.8 18
15:15 1024 30.24 853 25.19 8.1 46.6 31 -8 17.7
15:20 1024 30.24 853 25.19 8.3 47 32 -7.5 18.6
15:25 1024 30.24 853 25.19 8.9 48 32 -7 19.3
15:30 1024 30.24 853 25.19 9.1 48.3 31 -7.2 19.1
15:35 1024 30.24 853 25.19 8.8 47.8 32 -7 19.5
15:40 1024 30.24 853 25.19 8.8 47.9 31 -7.2 19
15:45 1024 30.24 853 25.19 9.3 48.7 30 -7.2 19
15:50 1024 30.24 853 25.19 9.1 48.4 32 -6.9 19.6
15:55 1024 30.24 853 25.19 8.7 47.7 33 -6.8 19.8
16:00 1024 30.24 853 25.19 8.4 47 32 -7.5 18.5
16:05 1024 30.24 853 25.19 7.8 46.1 33 -7.3 18.9
16:10 1024 30.24 853 25.19 8.2 46.8 34 -6.6 20.1
16:15 1024 30.24 853 25.19 8.7 47.6 32 -7.3 18.9
16:20 1024 30.24 853 25.19 8.7 47.7 32 -7.1 19.2
16:25 1024 30.24 853 25.19 9.1 48.3 32 -6.9 19.6
16:30 1024 30.24 853 25.19 9.1 48.3 32 -6.9 19.6
16:35 1024 30.24 853 25.19 9 48.3 32 -6.9 19.6
16:40 1024 30.24 853 25.19 8.9 48.1 33 -6.5 20.3
16:45 1024 30.24 853 25.19 8.7 47.7 33 -6.7 19.9
16:50 1024 30.24 853 25.19 8.6 47.5 33 -6.8 19.7
16:55 1024 30.24 853 25.19 8.5 47.2 34 -6.6 20
17:00 1024 30.24 853 25.19 8.2 46.7 34 -6.8 19.7
17:05 1024 30.24 853 25.19 8 46.3 34 -6.8 19.7
17:10 1024 30.24 853 25.19 7.7 45.8 35 -6.7 20
17:15 1024 30.24 853 25.19 7.5 45.5 35 -6.8 19.7
17:20 1023 30.21 853 25.19 7.3 45.1 36 -6.7 20
17:25 1023 30.21 853 25.19 7 44.6 37 -6.8 19.8
17:30 1023 30.21 853 25.19 6.7 44.1 37 -6.8 19.7
17:35 1023 30.21 853 25.19 6.6 43.9 38 -6.7 19.9
17:40 1023 30.21 853 25.19 6.4 43.5 39 -6.6 20.1
17:45 1023 30.21 852 25.16 5.9 42.6 41 -6.5 20.3
17:50 1023 30.21 852 25.16 5.6 42 41 -6.7 19.9
17:55 1023 30.21 852 25.16 5.2 41.3 43 -6.3 20.6
18:00 1023 30.21 852 25.16 5 41 43 -6.7 20
18:05 1023 30.21 852 25.16 4.9 40.7 44 -6.4 20.6
18:10 1023 30.21 853 25.19 4.6 40.2 45 -6.3 20.6
18:15 1023 30.21 852 25.16 4.4 40 44 -6.6 20.1
18:20 1023 30.21 852 25.16 4.2 39.6 45 -6.6 20.1
18:25 1023 30.21 852 25.16 3.9 39.1 47 -6.5 20.4
18:30 1023 30.21 852 25.16 3.8 38.8 47 -6.4 20.4
18:35 1023 30.21 852 25.16 3.2 37.7 53 -5.5 22.1
18:40 1023 30.21 852 25.16 2.7 36.9 52 -6.1 20.9
18:45 1023 30.21 852 25.16 2.8 37.1 51 -6.2 20.8
18:50 1023 30.21 852 25.16 2.9 37.2 50 -6.4 20.4
18:55 1023 30.21 852 25.16 3 37.3 52 -6 21.2
19:00 1023 30.21 852 25.16 2.7 36.9 54 -5.7 21.8
19:05 1023 30.21 852 25.16 2.4 36.3 54 -6.1 21
19:10 1023 30.21 852 25.16 2.3 36.2 53 -6.2 20.9
19:15 1023 30.21 852 25.16 2.3 36.2 53 -6.2 20.8
19:20 1023 30.21 852 25.16 2.2 35.9 53 -6.3 20.6
19:25 1023 30.21 852 25.16 2 35.7 54 -6.3 20.6
19:30 1023 30.21 852 25.16 2 35.5 54 -6.3 20.7
19:35 1023 30.21 852 25.16 2 35.7 54 -6.4 20.5
19:40 1022 30.18 852 25.16 2.2 35.9 53 -6.5 20.4
19:45 1022 30.18 852 25.16 2.2 35.9 53 -6.5 20.4
19:50 1022 30.18 852 25.16 2 35.6 54 -6.5 20.4
19:55 1022 30.18 852 25.16 1.9 35.4 53 -6.7 20
20:00 1022 30.18 852 25.16 2.1 35.7 53 -6.5 20.3
20:05 1023 30.21 852 25.16 2 35.5 54 -6.5 20.3
20:10 1023 30.21 852 25.16 2 35.7 54 -6.4 20.5
20:15 1023 30.21 852 25.16 1.9 35.5 54 -6.4 20.5
20:20 1023 30.21 852 25.16 1.9 35.3 54 -6.5 20.3
20:25 1022 30.18 852 25.16 1.9 35.4 54 -6.4 20.6
20:30 1022 30.18 852 25.16 1.4 34.5 56 -6.4 20.5
20:35 1022 30.18 852 25.16 1.1 33.9 57 -6.6 20.1
20:40 1022 30.18 852 25.16 1.1 34 56 -6.7 19.9
20:45 1022 30.18 852 25.16 1.3 34.4 55 -6.8 19.8
20:50 1022 30.18 851 25.13 1.6 34.9 54 -6.8 19.8
20:55 1022 30.18 851 25.13 1.8 35.2 53 -6.9 19.6
21:00 1022 30.18 851 25.13 1.9 35.5 52 -6.8 19.8
21:05 1022 30.18 851 25.13 1.8 35.3 53 -6.8 19.7
21:10 1022 30.18 851 25.13 2 35.6 53 -6.5 20.3
21:15 1022 30.18 851 25.13 1.5 34.7 54 -6.8 19.8
21:20 1022 30.18 851 25.13 1.2 34.2 55 -6.8 19.8
21:25 1022 30.18 851 25.13 1.1 34 56 -6.8 19.8
21:30 1022 30.18 851 25.13 1.1 34 55 -6.9 19.6
21:35 1022 30.18 851 25.13 1.3 34.3 55 -6.8 19.7
21:40 1022 30.18 851 25.13 1.6 34.9 54 -6.8 19.8
21:45 1022 30.18 851 25.13 1.7 35.1 53 -6.8 19.8
21:50 1022 30.18 851 25.13 1.7 35 53 -6.8 19.7
21:55 1022 30.18 851 25.13 1.6 34.9 54 -6.7 19.9
22:00 1022 30.18 851 25.13 1.3 34.4 55 -6.7 19.9
22:05 1022 30.18 851 25.13 1 33.7 57 -6.7 20
22:10 1022 30.18 851 25.13 0.5 32.9 58 -6.8 19.7
22:15 1022 30.18 851 25.13 0.5 32.9 58 -6.8 19.8
22:20 1022 30.18 851 25.13 0.4 32.7 58 -7 19.5
22:25 1022 30.18 851 25.13 0.4 32.8 58 -6.9 19.7
22:30 1022 30.18 851 25.13 0 32 59 -7 19.4
22:35 1022 30.18 851 25.13 0.6 33 57 -7 19.4
22:40 1022 30.18 851 25.13 0.4 32.6 59 -6.7 20
22:45 1022 30.18 851 25.13 -0.2 31.6 62 -6.7 20
22:50 1022 30.18 851 25.13 -0 32 60 -6.9 19.5
22:55 1022 30.18 851 25.13 0.5 32.8 57 -7.2 19.1
23:00 1022 30.18 851 25.13 1.1 34 55 -6.9 19.6
23:05 1022 30.18 851 25.13 0.9 33.5 56 -6.9 19.5
23:10 1022 30.18 851 25.13 0.6 33.1 57 -6.9 19.6
23:15 1022 30.18 851 25.13 0.1 32.1 59 -7 19.4
23:20 1022 30.18 851 25.13 -0.3 31.4 61 -7 19.5
23:25 1022 30.18 851 25.13 -0.3 31.4 60 -7.2 19
23:30 1021 30.15 851 25.13 -0.3 31.4 59 -7.3 18.9
23:35 1021 30.15 851 25.13 0 32 58 -7.2 19
23:40 1021 30.15 850 25.1 0.1 32.1 59 -7 19.4
23:45 1021 30.15 850 25.1 -0.7 30.8 62 -7 19.4
23:50 1021 30.15 850 25.1 -1.3 29.6 64 -7.3 18.9
23:55 1021 30.15 850 25.1 -1 30.3 61 -7.6 18.4
24:00 1021 30.15 850 25.1 -0.5 31.1 60 -7.3 18.9